Portada
METAR-TAF:

METAR-TAF

Aeroports :

Lamerd, Iran

latitud: 27-22-22N, longitud: 53-11-20E, altitud: 408 m

Observació

L'informe es va fer fa 5 hores i 8 minuts, a les 15:00 UTC
Vent 12 kt del Oest
Temperatura 23°C
Humitat 38%
Pressió 1014 hPa
Visibilitat 10 km o més
Núvols disperses a una alçada de 3000 ft, Cumulonimbus.
Núvols disperses a una alçada de 4000 ft
Cel cobert a una alçada de 10000 ft

METAR: OISR 241500Z 28012KT 9999 SCT030CB SCT040 OVC100 23/08 Q1013 A2993 NOSIG

Hora: 23:38 (20:08 UTC)


TAF: manca

Observacions i pronòstics meteorològics de més de 4000 aeroports (METAR i TAF).

Les estacions disponibles són els punts grocs i vermells al mapa.

Posi el ratolí al punt desitjat per veure el nom de l'estació.

Feu clic per veure les observacions i els pronòstics meteorològics.

Per canviar el mapa: feu clic els botons verds amb una creu de color negre per apropar; al botó verd amb un guió per allunyar la imatge; o en les fletxes verdes per a mapes adjacents.


METAR-TAF: